createdAt,value
2023-04-18T00:01:30.520Z,98746.91
2023-04-18T00:03:58.029Z,98744.69
2023-04-18T00:06:25.915Z,98739.50
2023-04-18T00:08:52.514Z,98741.56
2023-04-18T00:11:19.016Z,98735.47
2023-04-18T00:13:47.329Z,98738.78
2023-04-18T00:16:13.925Z,98731.72
2023-04-18T00:18:40.686Z,98730.25
2023-04-18T00:21:08.605Z,98720.63
2023-04-18T00:23:35.274Z,98735.13
2023-04-18T00:26:02.127Z,98728.78
2023-04-18T00:28:28.624Z,98728.03
2023-04-18T00:30:55.158Z,98736.03
2023-04-18T00:33:21.707Z,98719.31
2023-04-18T00:35:51.572Z,98728.44
2023-04-18T00:38:18.171Z,98724.38
2023-04-18T00:40:44.676Z,98725.91
2023-04-18T00:43:13.660Z,98722.00
2023-04-18T00:45:40.771Z,98720.09
2023-04-18T00:48:07.463Z,98722.47
2023-04-18T00:50:34.088Z,98720.28
2023-04-18T00:53:01.492Z,98720.09
2023-04-18T00:55:28.899Z,98711.13
2023-04-18T00:57:56.112Z,98714.13
2023-04-18T01:00:24.526Z,98710.00
2023-04-18T01:02:53.294Z,98709.09
2023-04-18T01:05:21.339Z,98714.78
2023-04-18T01:07:48.237Z,98699.91
2023-04-18T01:10:14.736Z,98694.28
2023-04-18T01:12:41.771Z,98693.22
2023-04-18T01:15:09.166Z,98695.75
2023-04-18T01:17:36.465Z,98695.59
2023-04-18T01:20:06.307Z,98690.97
2023-04-18T01:22:33.167Z,98686.97
2023-04-18T01:24:59.714Z,98687.22
2023-04-18T01:27:26.258Z,98691.94
2023-04-18T01:29:52.813Z,98691.69
2023-04-18T01:32:20.539Z,98684.47
2023-04-18T01:34:47.576Z,98682.25
2023-04-18T01:37:14.168Z,98676.91
2023-04-18T01:39:40.761Z,98675.22
2023-04-18T01:42:07.278Z,98671.84
2023-04-18T01:44:33.795Z,98676.63
2023-04-18T01:47:00.492Z,98681.81
2023-04-18T01:49:27.035Z,98671.19
2023-04-18T01:51:53.512Z,98673.97
2023-04-18T01:54:21.280Z,98663.59
2023-04-18T01:56:47.831Z,98669.78
2023-04-18T01:59:14.340Z,98670.72
2023-04-18T02:01:40.905Z,98661.44
2023-04-18T02:04:08.015Z,98668.75
2023-04-18T02:06:34.602Z,98658.91
2023-04-18T02:09:01.191Z,98666.91
2023-04-18T02:11:27.812Z,98661.00
2023-04-18T02:13:54.766Z,98661.75
2023-04-18T02:16:21.752Z,98664.00
2023-04-18T02:18:49.593Z,98670.81
2023-04-18T02:21:16.223Z,98671.22
2023-04-18T02:23:42.720Z,98666.97
2023-04-18T02:26:09.292Z,98668.97
2023-04-18T02:28:38.859Z,98666.78
2023-04-18T02:31:06.217Z,98675.66
2023-04-18T02:33:34.087Z,98663.41
2023-04-18T02:36:01.655Z,98676.22
2023-04-18T02:38:28.492Z,98664.53
2023-04-18T02:40:54.992Z,98666.75
2023-04-18T02:43:21.972Z,98669.53
2023-04-18T02:45:48.518Z,98670.66
2023-04-18T02:48:15.193Z,98669.00
2023-04-18T02:50:41.781Z,98664.72
2023-04-18T02:53:08.302Z,98658.59
2023-04-18T02:55:49.025Z,98663.78
2023-04-18T02:58:16.280Z,98659.72
2023-04-18T03:01:00.310Z,98667.50
2023-04-18T03:03:53.584Z,98666.00
2023-04-18T03:06:42.696Z,98664.53
2023-04-18T03:09:09.615Z,98661.94
2023-04-18T03:11:41.042Z,98660.09
2023-04-18T03:14:08.163Z,98664.16
2023-04-18T03:16:42.199Z,98667.13
2023-04-18T03:19:12.221Z,98656.00
2023-04-18T03:21:38.883Z,98662.88
2023-04-18T03:24:05.805Z,98656.00
2023-04-18T03:26:34.239Z,98658.63
2023-04-18T03:29:02.790Z,98659.75
2023-04-18T03:31:29.334Z,98657.50
2023-04-18T03:33:56.625Z,98663.44
2023-04-18T03:36:25.406Z,98661.56
2023-04-18T03:38:54.148Z,98669.38
2023-04-18T03:41:20.636Z,98669.75
2023-04-18T03:43:47.156Z,98670.47
2023-04-18T03:46:13.747Z,98674.53
2023-04-18T03:48:40.424Z,98668.25
2023-04-18T03:51:10.306Z,98671.38
2023-04-18T03:53:38.235Z,98674.53
2023-04-18T03:56:04.900Z,98666.00
2023-04-18T03:58:49.754Z,98678.25
2023-04-18T04:01:18.130Z,98669.00
2023-04-18T04:03:44.757Z,98672.13
2023-04-18T04:06:11.537Z,98669.19
2023-04-18T04:08:38.477Z,98671.78
2023-04-18T04:11:05.179Z,98678.25
2023-04-18T04:13:32.973Z,98672.31
2023-04-18T04:15:59.609Z,98674.72
2023-04-18T04:18:30.991Z,98671.19
2023-04-18T04:21:00.413Z,98681.19
2023-04-18T04:23:42.069Z,98672.13
2023-04-18T04:26:10.719Z,98668.25
2023-04-18T04:28:46.473Z,98673.97
2023-04-18T04:31:16.409Z,98670.09
2023-04-18T04:33:43.648Z,98675.25
2023-04-18T04:36:18.593Z,98674.72
2023-04-18T04:38:47.279Z,98673.06
2023-04-18T04:41:14.001Z,98675.97
2023-04-18T04:43:41.234Z,98675.84
2023-04-18T04:46:08.984Z,98679.34
2023-04-18T04:48:35.552Z,98674.38
2023-04-18T04:51:03.709Z,98680.09
2023-04-18T04:53:30.531Z,98671.94
2023-04-18T04:55:58.443Z,98677.50
2023-04-18T04:58:25.197Z,98677.13
2023-04-18T05:01:12.958Z,98680.28
2023-04-18T05:03:40.672Z,98686.41
2023-04-18T05:06:07.391Z,98687.16
2023-04-18T05:08:34.650Z,98683.06
2023-04-18T05:11:01.939Z,98687.69
2023-04-18T05:13:28.409Z,98690.06
2023-04-18T05:15:55.600Z,98688.94
2023-04-18T05:18:22.125Z,98693.78
2023-04-18T05:20:49.324Z,98691.22
2023-04-18T05:23:16.227Z,98697.91
2023-04-18T05:25:42.716Z,98687.50
2023-04-18T05:28:09.585Z,98694.94
2023-04-18T05:30:36.189Z,98692.69
2023-04-18T05:33:02.772Z,98689.34
2023-04-18T05:35:29.241Z,98695.69
2023-04-18T05:37:55.779Z,98686.97
2023-04-18T05:40:22.693Z,98691.56
2023-04-18T05:42:49.214Z,98691.00
2023-04-18T05:45:15.792Z,98702.72
2023-04-18T05:47:42.340Z,98703.44
2023-04-18T05:50:09.140Z,98701.38
2023-04-18T05:52:37.149Z,98704.38
2023-04-18T05:55:03.672Z,98710.09
2023-04-18T05:57:30.205Z,98710.84
2023-04-18T05:59:56.850Z,98702.72
2023-04-18T06:02:23.642Z,98712.34
2023-04-18T06:04:50.386Z,98715.69
2023-04-18T06:07:17.213Z,98710.50
2023-04-18T06:09:43.711Z,98714.75
2023-04-18T06:12:10.809Z,98714.56
2023-04-18T06:14:37.410Z,98718.78
2023-04-18T06:17:03.932Z,98722.28
2023-04-18T06:19:30.458Z,98717.88
2023-04-18T06:21:56.956Z,98721.56
2023-04-18T06:24:23.791Z,98722.34
2023-04-18T06:26:50.345Z,98729.94
2023-04-18T06:29:18.099Z,98726.03
2023-04-18T06:31:46.588Z,98714.63
2023-04-18T06:34:13.808Z,98724.13
2023-04-18T06:36:40.526Z,98719.38
2023-04-18T06:39:06.989Z,98718.25
2023-04-18T06:41:33.523Z,98733.09
2023-04-18T06:44:04.076Z,98723.81
2023-04-18T06:46:32.106Z,98727.31
2023-04-18T06:48:58.803Z,98734.16
2023-04-18T06:51:25.270Z,98732.28
2023-04-18T06:53:53.718Z,98728.16
2023-04-18T06:56:20.773Z,98731.13
2023-04-18T06:58:47.861Z,98725.63
2023-04-18T07:01:14.460Z,98726.00
2023-04-18T07:03:41.069Z,98734.34
2023-04-18T07:06:08.893Z,98731.78
2023-04-18T07:08:35.746Z,98726.56
2023-04-18T07:11:02.360Z,98730.88
2023-04-18T07:13:28.970Z,98741.66
2023-04-18T07:15:55.560Z,98737.38
2023-04-18T07:18:34.288Z,98737.59
2023-04-18T07:21:43.265Z,98734.38
2023-04-18T07:23:53.660Z,98737.03
2023-04-18T07:26:20.495Z,98739.03
2023-04-18T07:28:47.015Z,98735.13
2023-04-18T07:31:14.415Z,98732.03
2023-04-18T07:33:41.089Z,98741.19
2023-04-18T07:36:07.703Z,98736.34
2023-04-18T07:38:37.380Z,98743.91
2023-04-18T07:41:03.964Z,98732.88
2023-04-18T07:43:30.601Z,98741.56
2023-04-18T07:45:57.174Z,98746.00
2023-04-18T07:48:25.156Z,98742.41
2023-04-18T07:50:51.584Z,98732.56
2023-04-18T07:53:18.067Z,98725.53
2023-04-18T07:55:45.290Z,98737.19
2023-04-18T07:58:11.928Z,98740.78
2023-04-18T08:00:39.211Z,98731.72
2023-04-18T08:03:07.502Z,98737.09
2023-04-18T08:05:34.917Z,98733.72
2023-04-18T08:08:01.560Z,98741.38
2023-04-18T08:10:28.184Z,98738.81
2023-04-18T08:12:54.734Z,98733.59
2023-04-18T08:15:21.277Z,98737.09
2023-04-18T08:17:49.096Z,98732.78
2023-04-18T08:20:15.733Z,98732.56
2023-04-18T08:22:57.649Z,98738.81
2023-04-18T08:25:31.568Z,98745.72
2023-04-18T08:27:58.103Z,98748.03
2023-04-18T08:30:24.626Z,98747.44
2023-04-18T08:32:51.572Z,98748.06
2023-04-18T08:35:18.568Z,98758.41
2023-04-18T08:37:45.091Z,98755.78
2023-04-18T08:40:11.854Z,98759.66
2023-04-18T08:42:38.750Z,98757.75
2023-04-18T08:45:09.450Z,98752.91
2023-04-18T08:47:35.966Z,98755.16
2023-04-18T08:50:02.566Z,98752.78
2023-04-18T08:52:30.996Z,98746.91
2023-04-18T08:54:57.557Z,98758.34
2023-04-18T08:57:27.346Z,98763.25
2023-04-18T08:59:54.485Z,98757.00
2023-04-18T09:02:24.200Z,98767.13
2023-04-18T09:04:53.520Z,98772.56
2023-04-18T09:07:28.416Z,98768.44
2023-04-18T09:09:59.826Z,98766.81
2023-04-18T09:12:27.997Z,98772.06
2023-04-18T09:14:59.585Z,98763.69
2023-04-18T09:17:33.037Z,98770.25
2023-04-18T09:20:01.081Z,98772.59
2023-04-18T09:23:01.088Z,98771.91
2023-04-18T09:25:34.873Z,98771.97
2023-04-18T09:28:02.800Z,98768.44
2023-04-18T09:30:37.869Z,98778.19
2023-04-18T09:33:09.677Z,98769.59
2023-04-18T09:35:37.659Z,98769.13
2023-04-18T09:38:05.239Z,98773.63
2023-04-18T09:40:32.485Z,98770.44
2023-04-18T09:42:59.320Z,98775.72
2023-04-18T09:45:26.514Z,98776.06
2023-04-18T09:47:53.561Z,98779.56
2023-04-18T09:50:20.814Z,98766.56
2023-04-18T09:52:48.503Z,98756.78
2023-04-18T09:55:17.503Z,98766.09
2023-04-18T09:57:48.100Z,98760.56
2023-04-18T10:00:26.355Z,98767.19
2023-04-18T10:02:53.343Z,98768.94
2023-04-18T10:05:21.425Z,98759.78
2023-04-18T10:07:48.922Z,98762.06
2023-04-18T10:10:15.796Z,98760.88
2023-04-18T10:12:42.380Z,98760.50
2023-04-18T10:15:10.004Z,98753.88
2023-04-18T10:17:52.582Z,98760.00
2023-04-18T10:20:29.147Z,98757.19
2023-04-18T10:22:57.142Z,98754.81
2023-04-18T10:25:38.870Z,98757.94
2023-04-18T10:28:06.683Z,98756.00
2023-04-18T10:30:42.245Z,98757.19
2023-04-18T10:33:37.159Z,98749.16
2023-04-18T10:36:09.074Z,98751.59
2023-04-18T10:38:38.618Z,98751.09
2023-04-18T10:41:28.450Z,98754.03
2023-04-18T10:44:09.980Z,98754.63
2023-04-18T10:46:39.991Z,98748.53
2023-04-18T10:49:14.141Z,98751.91
2023-04-18T10:51:41.150Z,98751.31
2023-04-18T10:54:09.766Z,98741.88
2023-04-18T10:56:36.604Z,98740.59
2023-04-18T10:59:03.640Z,98742.94
2023-04-18T11:01:32.893Z,98734.59
2023-04-18T11:04:00.183Z,98731.63
2023-04-18T11:06:27.648Z,98728.38
2023-04-18T11:09:11.600Z,98727.78
2023-04-18T11:11:38.155Z,98722.34
2023-04-18T11:14:04.646Z,98718.91
2023-04-18T11:16:32.952Z,98716.88
2023-04-18T11:18:59.930Z,98718.06
2023-04-18T11:21:30.419Z,98722.78
2023-04-18T11:23:58.047Z,98719.72
2023-04-18T11:26:29.017Z,98725.69
2023-04-18T11:28:58.511Z,98724.97
2023-04-18T11:31:26.147Z,98722.22
2023-04-18T11:33:56.139Z,98722.78
2023-04-18T11:36:22.714Z,98719.25
2023-04-18T11:38:49.165Z,98720.25
2023-04-18T11:41:16.032Z,98715.59
2023-04-18T11:43:46.480Z,98707.66
2023-04-18T11:46:13.818Z,98714.47
2023-04-18T11:48:42.216Z,98714.34
2023-04-18T11:51:32.273Z,98716.03
2023-04-18T11:53:58.818Z,98714.38
2023-04-18T11:56:25.414Z,98718.78
2023-04-18T11:58:52.005Z,98721.88
2023-04-18T12:01:20.493Z,98723.75
2023-04-18T12:04:03.767Z,98720.28
2023-04-18T12:06:52.119Z,98716.16
2023-04-18T12:09:19.414Z,98724.56
2023-04-18T12:11:58.078Z,98716.28
2023-04-18T12:14:24.616Z,98721.41
2023-04-18T12:16:52.049Z,98716.00
2023-04-18T12:19:20.780Z,98706.94
2023-04-18T12:22:01.578Z,98712.97
2023-04-18T12:24:29.874Z,98711.50
2023-04-18T12:26:58.082Z,98705.22
2023-04-18T12:29:25.612Z,98711.22
2023-04-18T12:31:52.230Z,98698.16
2023-04-18T12:34:18.836Z,98713.00
2023-04-18T12:36:45.988Z,98702.53
2023-04-18T12:39:12.698Z,98706.63
2023-04-18T12:41:39.563Z,98699.13
2023-04-18T12:44:06.697Z,98707.09
2023-04-18T12:46:33.347Z,98701.47
2023-04-18T12:49:00.288Z,98702.66
2023-04-18T12:51:29.043Z,98698.94
2023-04-18T12:53:56.335Z,98696.25
2023-04-18T12:56:22.822Z,98706.28
2023-04-18T12:58:49.349Z,98703.34
2023-04-18T13:01:16.495Z,98692.25
2023-04-18T13:03:43.265Z,98702.69
2023-04-18T13:06:09.836Z,98703.97
2023-04-18T13:08:37.470Z,98699.16
2023-04-18T13:11:04.623Z,98701.28
2023-04-18T13:13:31.082Z,98693.28
2023-04-18T13:15:57.577Z,98700.53
2023-04-18T13:18:24.437Z,98699.63
2023-04-18T13:20:51.537Z,98703.97
2023-04-18T13:23:18.053Z,98698.66
2023-04-18T13:25:44.964Z,98708.94
2023-04-18T13:28:11.487Z,98710.28
2023-04-18T13:30:38.020Z,98712.41
2023-04-18T13:33:04.591Z,98711.06
2023-04-18T13:35:31.240Z,98710.66
2023-04-18T13:37:57.785Z,98708.81
2023-04-18T13:40:25.098Z,98704.25
2023-04-18T13:42:51.575Z,98698.19
2023-04-18T13:45:18.714Z,98698.44
2023-04-18T13:47:45.248Z,98703.75
2023-04-18T13:50:11.873Z,98708.31
2023-04-18T13:52:38.416Z,98706.78
2023-04-18T13:55:05.384Z,98714.06
2023-04-18T13:57:33.680Z,98708.59
2023-04-18T14:00:00.346Z,98712.47
2023-04-18T14:02:27.000Z,98713.94
2023-04-18T14:04:54.852Z,98716.16
2023-04-18T14:07:21.554Z,98712.81
2023-04-18T14:09:48.184Z,98712.53
2023-04-18T14:12:14.722Z,98709.44
2023-04-18T14:14:41.826Z,98707.25
2023-04-18T14:17:08.346Z,98707.25
2023-04-18T14:19:35.040Z,98706.34
2023-04-18T14:22:01.577Z,98710.91
2023-04-18T14:24:28.157Z,98708.75
2023-04-18T14:26:54.833Z,98706.16
2023-04-18T14:29:21.390Z,98711.22
2023-04-18T14:31:48.116Z,98714.84
2023-04-18T14:34:14.887Z,98716.75
2023-04-18T14:36:41.477Z,98702.09
2023-04-18T14:39:08.352Z,98710.38
2023-04-18T14:41:34.923Z,98705.50
2023-04-18T14:44:02.164Z,98712.59
2023-04-18T14:46:29.230Z,98699.63
2023-04-18T14:48:56.872Z,98696.81
2023-04-18T14:51:23.664Z,98695.38
2023-04-18T14:53:50.252Z,98705.44
2023-04-18T14:56:20.899Z,98688.88
2023-04-18T14:58:47.595Z,98696.72
2023-04-18T15:01:14.350Z,98696.34
2023-04-18T15:03:41.000Z,98697.97
2023-04-18T15:06:07.794Z,98696.91
2023-04-18T15:08:34.398Z,98698.28
2023-04-18T15:11:01.353Z,98704.56
2023-04-18T15:13:28.003Z,98696.41
2023-04-18T15:15:57.113Z,98702.84
2023-04-18T15:18:23.638Z,98707.03
2023-04-18T15:20:51.715Z,98707.34
2023-04-18T15:23:18.219Z,98708.00
2023-04-18T15:25:45.316Z,98701.50
2023-04-18T15:28:15.993Z,98709.44
2023-04-18T15:30:42.553Z,98696.84
2023-04-18T15:33:09.006Z,98704.94
2023-04-18T15:35:35.843Z,98711.19
2023-04-18T15:38:02.390Z,98715.59
2023-04-18T15:40:28.975Z,98723.84
2023-04-18T15:42:57.840Z,98713.53
2023-04-18T15:45:24.408Z,98723.59
2023-04-18T15:47:51.544Z,98711.13
2023-04-18T15:50:18.175Z,98723.25
2023-04-18T15:52:44.655Z,98726.94
2023-04-18T15:55:13.053Z,98712.16
2023-04-18T15:57:40.279Z,98714.22
2023-04-18T16:00:11.835Z,98719.06
2023-04-18T16:02:38.582Z,98725.91
2023-04-18T16:05:05.575Z,98719.31
2023-04-18T16:07:32.176Z,98726.59
2023-04-18T16:09:58.826Z,98725.75
2023-04-18T16:12:25.409Z,98730.31
2023-04-18T16:14:51.908Z,98720.72
2023-04-18T16:17:18.438Z,98727.72
2023-04-18T16:19:44.962Z,98731.00
2023-04-18T16:22:12.364Z,98740.19
2023-04-18T16:24:40.855Z,98740.47
2023-04-18T16:27:08.590Z,98736.44
2023-04-18T16:29:35.390Z,98741.09
2023-04-18T16:32:01.913Z,98742.69
2023-04-18T16:34:28.434Z,98740.94
2023-04-18T16:36:55.734Z,98733.78
2023-04-18T16:39:22.339Z,98735.56
2023-04-18T16:41:48.876Z,98741.66
2023-04-18T16:44:15.640Z,98743.34
2023-04-18T16:46:42.481Z,98743.50
2023-04-18T16:49:09.027Z,98742.69
2023-04-18T16:51:37.149Z,98745.09
2023-04-18T16:54:04.379Z,98744.94
2023-04-18T16:56:30.803Z,98739.97
2023-04-18T16:58:58.059Z,98743.34
2023-04-18T17:01:24.628Z,98744.28
2023-04-18T17:03:51.487Z,98747.97
2023-04-18T17:06:19.374Z,98751.63
2023-04-18T17:08:45.954Z,98748.44
2023-04-18T17:11:12.487Z,98748.88
2023-04-18T17:13:38.968Z,98749.72
2023-04-18T17:16:06.820Z,98752.56
2023-04-18T17:18:33.420Z,98749.00
2023-04-18T17:21:00.021Z,98752.56
2023-04-18T17:23:26.748Z,98757.41
2023-04-18T17:25:53.299Z,98750.94
2023-04-18T17:28:21.209Z,98753.28
2023-04-18T17:30:47.777Z,98752.84
2023-04-18T17:33:14.537Z,98750.06
2023-04-18T17:35:44.063Z,98748.88
2023-04-18T17:38:10.798Z,98754.03
2023-04-18T17:40:37.346Z,98759.34
2023-04-18T17:43:03.820Z,98758.78
2023-04-18T17:45:30.540Z,98767.56
2023-04-18T17:47:58.196Z,98759.34
2023-04-18T17:50:24.983Z,98769.38
2023-04-18T17:52:51.679Z,98775.53
2023-04-18T17:55:18.699Z,98768.06
2023-04-18T17:57:45.335Z,98782.06
2023-04-18T18:00:13.829Z,98777.63
2023-04-18T18:02:44.747Z,98777.19
2023-04-18T18:05:13.355Z,98773.91
2023-04-18T18:07:42.844Z,98775.13
2023-04-18T18:10:10.060Z,98776.72
2023-04-18T18:12:38.043Z,98779.75
2023-04-18T18:15:05.222Z,98785.69
2023-04-18T18:17:31.868Z,98786.63
2023-04-18T18:19:58.383Z,98788.59
2023-04-18T18:22:26.048Z,98798.94
2023-04-18T18:24:52.825Z,98799.19
2023-04-18T18:27:20.291Z,98792.25
2023-04-18T18:29:48.031Z,98804.03
2023-04-18T18:32:14.616Z,98803.19
2023-04-18T18:34:41.124Z,98801.75
2023-04-18T18:37:08.159Z,98804.59
2023-04-18T18:39:34.862Z,98816.41
2023-04-18T18:42:02.136Z,98811.75
2023-04-18T18:44:28.640Z,98808.53
2023-04-18T18:46:56.382Z,98815.94
2023-04-18T18:49:23.485Z,98813.34
2023-04-18T18:51:49.965Z,98820.78
2023-04-18T18:54:16.542Z,98824.59
2023-04-18T18:56:44.207Z,98830.03
2023-04-18T18:59:11.121Z,98827.16
2023-04-18T19:01:38.947Z,98835.47
2023-04-18T19:04:05.696Z,98833.16
2023-04-18T19:06:32.376Z,98834.63
2023-04-18T19:08:59.035Z,98828.84
2023-04-18T19:11:26.678Z,98841.84
2023-04-18T19:13:53.246Z,98836.22
2023-04-18T19:16:19.846Z,98845.28
2023-04-18T19:18:47.326Z,98837.66
2023-04-18T19:21:13.995Z,98853.00
2023-04-18T19:23:41.853Z,98842.91
2023-04-18T19:26:09.270Z,98846.19
2023-04-18T19:28:36.026Z,98845.94
2023-04-18T19:31:02.569Z,98854.81
2023-04-18T19:33:29.281Z,98855.59
2023-04-18T19:35:55.884Z,98848.75
2023-04-18T19:38:22.422Z,98854.25
2023-04-18T19:40:49.424Z,98853.78
2023-04-18T19:43:16.073Z,98852.56
2023-04-18T19:45:42.655Z,98851.84
2023-04-18T19:48:09.338Z,98855.09
2023-04-18T19:50:35.861Z,98851.50
2023-04-18T19:53:02.374Z,98856.75
2023-04-18T19:55:28.903Z,98861.75
2023-04-18T19:57:56.579Z,98855.72
2023-04-18T20:00:23.083Z,98859.91
2023-04-18T20:02:49.708Z,98864.34
2023-04-18T20:05:18.483Z,98857.47
2023-04-18T20:07:45.033Z,98853.50
2023-04-18T20:10:11.582Z,98864.63
2023-04-18T20:12:38.027Z,98862.69
2023-04-18T20:15:05.682Z,98868.09
2023-04-18T20:17:34.385Z,98859.91
2023-04-18T20:20:01.444Z,98867.63
2023-04-18T20:22:28.180Z,98864.91
2023-04-18T20:24:57.106Z,98864.91
2023-04-18T20:27:24.076Z,98872.03
2023-04-18T20:29:50.642Z,98873.34
2023-04-18T20:32:17.227Z,98862.97
2023-04-18T20:34:43.807Z,98861.09
2023-04-18T20:37:10.258Z,98863.47
2023-04-18T20:39:38.144Z,98861.88
2023-04-18T20:42:04.870Z,98861.97
2023-04-18T20:44:34.289Z,98865.00
2023-04-18T20:47:01.073Z,98864.19
2023-04-18T20:49:29.438Z,98862.78
2023-04-18T20:51:55.934Z,98871.53
2023-04-18T20:54:22.550Z,98875.53
2023-04-18T20:56:49.166Z,98878.50
2023-04-18T20:59:15.661Z,98876.34
2023-04-18T21:01:42.626Z,98873.97
2023-04-18T21:04:09.296Z,98866.47
2023-04-18T21:06:36.643Z,98873.00
2023-04-18T21:09:03.244Z,98868.16
2023-04-18T21:11:29.752Z,98867.31
2023-04-18T21:13:56.267Z,98875.03
2023-04-18T21:16:23.950Z,98870.78
2023-04-18T21:18:50.619Z,98877.09
2023-04-18T21:21:17.687Z,98868.38
2023-04-18T21:23:44.510Z,98872.41
2023-04-18T21:26:13.073Z,98877.75
2023-04-18T21:29:08.801Z,98869.31
2023-04-18T21:31:35.445Z,98873.44
2023-04-18T21:34:04.879Z,98873.38
2023-04-18T21:36:32.105Z,98880.97
2023-04-18T21:39:00.687Z,98875.88
2023-04-18T21:41:27.504Z,98873.16
2023-04-18T21:43:54.019Z,98878.09
2023-04-18T21:46:20.762Z,98872.41
2023-04-18T21:48:47.932Z,98873.91
2023-04-18T21:51:16.206Z,98870.19
2023-04-18T21:53:42.837Z,98871.78
2023-04-18T21:56:09.635Z,98876.44
2023-04-18T21:58:36.145Z,98876.53
2023-04-18T22:01:03.127Z,98880.50
2023-04-18T22:03:29.873Z,98880.38
2023-04-18T22:05:56.646Z,98874.63
2023-04-18T22:08:25.828Z,98871.63
2023-04-18T22:10:57.800Z,98862.69
2023-04-18T22:13:25.231Z,98866.69
2023-04-18T22:15:51.803Z,98870.38
2023-04-18T22:18:18.830Z,98868.16
2023-04-18T22:20:46.833Z,98859.69
2023-04-18T22:23:13.989Z,98867.16
2023-04-18T22:25:40.877Z,98859.69
2023-04-18T22:28:07.486Z,98865.13
2023-04-18T22:30:34.896Z,98859.19
2023-04-18T22:33:01.676Z,98860.19
2023-04-18T22:35:28.266Z,98864.56
2023-04-18T22:37:55.504Z,98860.28
2023-04-18T22:40:22.109Z,98867.09
2023-04-18T22:42:48.582Z,98866.91
2023-04-18T22:45:15.509Z,98869.22
2023-04-18T22:47:42.104Z,98872.09
2023-04-18T22:50:08.853Z,98874.72
2023-04-18T22:52:35.482Z,98885.88
2023-04-18T22:55:02.854Z,98892.00
2023-04-18T22:57:29.665Z,98887.72
2023-04-18T22:59:56.553Z,98890.00
2023-04-18T23:02:23.201Z,98889.59
2023-04-18T23:04:50.558Z,98890.19
2023-04-18T23:07:17.112Z,98882.19
2023-04-18T23:09:43.592Z,98890.41
2023-04-18T23:12:10.061Z,98884.16
2023-04-18T23:14:36.567Z,98887.72
2023-04-18T23:17:03.151Z,98891.00
2023-04-18T23:19:29.702Z,98890.00
2023-04-18T23:21:56.203Z,98889.44
2023-04-18T23:24:22.715Z,98891.50
2023-04-18T23:26:49.187Z,98882.69
2023-04-18T23:29:15.656Z,98888.94
2023-04-18T23:31:42.114Z,98894.94
2023-04-18T23:34:09.823Z,98892.16
2023-04-18T23:36:37.123Z,98885.91
2023-04-18T23:39:04.121Z,98890.34
2023-04-18T23:41:30.745Z,98890.91
2023-04-18T23:43:57.118Z,98886.06
2023-04-18T23:46:23.997Z,98889.03
2023-04-18T23:48:50.856Z,98885.72
2023-04-18T23:51:17.345Z,98880.31
2023-04-18T23:53:43.887Z,98879.84
2023-04-18T23:56:10.400Z,98878.66
2023-04-18T23:58:36.860Z,98878.59
